createdAt,value
2022-08-30T00:01:09.253Z,19.20
2022-08-30T00:03:45.967Z,19.10
2022-08-30T00:06:15.935Z,19.20
2022-08-30T00:08:43.887Z,19.20
2022-08-30T00:11:13.719Z,19.20
2022-08-30T00:13:44.522Z,19.10
2022-08-30T00:16:12.398Z,19.10
2022-08-30T00:18:39.921Z,19.10
2022-08-30T00:21:07.487Z,19.10
2022-08-30T00:23:34.249Z,19.10
2022-08-30T00:26:02.514Z,19.00
2022-08-30T00:28:30.207Z,19.00
2022-08-30T00:30:57.022Z,19.00
2022-08-30T00:33:24.013Z,19.00
2022-08-30T00:35:50.734Z,19.00
2022-08-30T00:38:17.551Z,19.00
2022-08-30T00:40:45.796Z,19.00
2022-08-30T00:43:18.101Z,19.00
2022-08-30T00:45:46.610Z,19.00
2022-08-30T00:48:13.512Z,19.00
2022-08-30T00:50:47.209Z,19.00
2022-08-30T00:53:33.981Z,19.00
2022-08-30T00:56:01.567Z,18.90
2022-08-30T00:58:32.376Z,18.90
2022-08-30T01:01:01.471Z,18.80
2022-08-30T01:03:29.825Z,18.80
2022-08-30T01:05:58.653Z,18.70
2022-08-30T01:08:25.431Z,18.70
2022-08-30T01:10:53.583Z,18.70
2022-08-30T01:13:22.690Z,18.70
2022-08-30T01:15:50.654Z,18.60
2022-08-30T01:18:18.833Z,18.60
2022-08-30T01:21:00.464Z,18.60
2022-08-30T01:23:28.798Z,18.50
2022-08-30T01:25:57.953Z,18.50
2022-08-30T01:28:27.620Z,18.50
2022-08-30T01:30:54.560Z,18.50
2022-08-30T01:33:22.693Z,18.40
2022-08-30T01:35:56.374Z,18.40
2022-08-30T01:38:28.027Z,18.50
2022-08-30T01:41:00.806Z,18.50
2022-08-30T01:43:28.861Z,18.40
2022-08-30T01:45:55.896Z,18.40
2022-08-30T01:48:22.669Z,18.40
2022-08-30T01:50:58.398Z,18.30
2022-08-30T01:53:25.361Z,18.40
2022-08-30T01:55:52.112Z,18.30
2022-08-30T01:58:18.883Z,18.30
2022-08-30T02:00:45.642Z,18.30
2022-08-30T02:03:12.451Z,18.30
2022-08-30T02:05:39.400Z,18.20
2022-08-30T02:08:06.194Z,18.20
2022-08-30T02:10:33.136Z,18.30
2022-08-30T02:12:59.896Z,18.30
2022-08-30T02:15:26.782Z,18.30
2022-08-30T02:17:53.985Z,18.30
2022-08-30T02:20:20.740Z,18.20
2022-08-30T02:22:49.319Z,18.30
2022-08-30T02:25:20.966Z,18.20
2022-08-30T02:27:48.518Z,18.20
2022-08-30T02:30:15.492Z,18.20
2022-08-30T02:32:42.234Z,18.10
2022-08-30T02:35:09.609Z,18.20
2022-08-30T02:37:36.690Z,18.10
2022-08-30T02:40:04.811Z,18.10
2022-08-30T02:42:31.715Z,18.00
2022-08-30T02:44:58.531Z,18.00
2022-08-30T02:47:25.299Z,18.00
2022-08-30T02:49:52.032Z,18.00
2022-08-30T02:52:19.832Z,18.00
2022-08-30T02:54:55.188Z,17.90
2022-08-30T02:57:22.854Z,17.90
2022-08-30T02:59:50.147Z,18.00
2022-08-30T03:02:16.925Z,18.00
2022-08-30T03:04:45.000Z,18.00
2022-08-30T03:07:12.743Z,18.10
2022-08-30T03:09:39.818Z,17.90
2022-08-30T03:12:07.815Z,18.00
2022-08-30T03:14:36.641Z,17.90
2022-08-30T03:17:06.749Z,17.90
2022-08-30T03:19:39.527Z,17.90
2022-08-30T03:22:07.460Z,17.90
2022-08-30T03:24:34.751Z,17.80
2022-08-30T03:27:01.908Z,17.80
2022-08-30T03:29:29.676Z,17.80
2022-08-30T03:31:59.498Z,17.80
2022-08-30T03:34:27.432Z,17.80
2022-08-30T03:36:55.756Z,17.90
2022-08-30T03:39:23.799Z,17.80
2022-08-30T03:41:51.146Z,17.90
2022-08-30T03:44:18.824Z,17.90
2022-08-30T03:46:46.092Z,17.90
2022-08-30T03:49:12.969Z,17.90
2022-08-30T03:51:39.921Z,18.00
2022-08-30T03:54:06.794Z,17.90
2022-08-30T03:56:33.708Z,18.00
2022-08-30T03:59:00.482Z,18.00
2022-08-30T04:01:27.494Z,18.00
2022-08-30T04:03:54.311Z,18.00
2022-08-30T04:06:21.040Z,17.90
2022-08-30T04:08:47.944Z,17.90
2022-08-30T04:11:16.370Z,17.80
2022-08-30T04:13:43.728Z,17.80
2022-08-30T04:16:11.167Z,17.80
2022-08-30T04:18:38.696Z,17.80
2022-08-30T04:21:06.570Z,17.80
2022-08-30T04:23:33.516Z,17.80
2022-08-30T04:26:00.357Z,17.80
2022-08-30T04:28:27.324Z,17.70
2022-08-30T04:30:54.051Z,17.60
2022-08-30T04:47:10.176Z,17.50
2022-08-30T04:49:36.933Z,17.40
2022-08-30T04:52:06.268Z,17.50
2022-08-30T04:54:33.016Z,17.40
2022-08-30T04:57:00.863Z,17.40
2022-08-30T04:59:28.754Z,17.40
2022-08-30T05:01:55.628Z,17.40
2022-08-30T05:04:22.492Z,17.50
2022-08-30T05:06:49.240Z,17.50
2022-08-30T05:09:16.117Z,17.60
2022-08-30T05:11:43.450Z,17.60
2022-08-30T05:14:10.516Z,17.70
2022-08-30T05:16:37.400Z,17.80
2022-08-30T05:19:04.298Z,17.80
2022-08-30T05:21:31.089Z,17.80
2022-08-30T05:24:00.100Z,17.80
2022-08-30T05:26:30.334Z,17.90
2022-08-30T05:28:57.716Z,18.00
2022-08-30T05:31:33.768Z,18.00
2022-08-30T05:34:01.314Z,18.10
2022-08-30T05:36:30.432Z,18.10
2022-08-30T05:38:57.901Z,18.20
2022-08-30T05:41:27.063Z,18.30
2022-08-30T05:43:58.261Z,18.40
2022-08-30T05:46:26.025Z,18.50
2022-08-30T05:48:52.876Z,18.60
2022-08-30T05:51:23.146Z,18.80
2022-08-30T05:53:52.025Z,18.80
2022-08-30T05:56:21.893Z,18.90
2022-08-30T05:58:52.540Z,19.00
2022-08-30T06:01:20.634Z,19.10
2022-08-30T06:03:48.012Z,19.20
2022-08-30T06:06:14.904Z,19.20
2022-08-30T06:08:42.524Z,19.30
2022-08-30T06:11:09.456Z,19.30
2022-08-30T06:13:36.194Z,19.40
2022-08-30T06:16:03.194Z,19.50
2022-08-30T06:18:30.262Z,19.60
2022-08-30T06:20:57.078Z,19.70
2022-08-30T06:23:24.677Z,19.70
2022-08-30T06:25:51.506Z,19.80
2022-08-30T06:28:18.392Z,19.90
2022-08-30T06:30:45.236Z,19.90
2022-08-30T06:33:12.134Z,20.00
2022-08-30T06:35:56.743Z,20.00
2022-08-30T06:38:25.389Z,20.00
2022-08-30T06:40:52.116Z,20.10
2022-08-30T06:43:18.855Z,20.20
2022-08-30T06:45:45.734Z,20.30
2022-08-30T06:48:12.515Z,20.50
2022-08-30T06:50:41.922Z,20.50
2022-08-30T06:53:09.832Z,20.70
2022-08-30T06:55:37.638Z,20.80
2022-08-30T06:58:04.727Z,20.80
2022-08-30T07:00:31.514Z,21.00
2022-08-30T07:02:59.180Z,21.10
2022-08-30T07:05:26.093Z,21.20
2022-08-30T07:07:55.686Z,21.30
2022-08-30T07:10:22.585Z,21.40
2022-08-30T07:12:49.478Z,21.50
2022-08-30T07:15:20.444Z,21.60
2022-08-30T07:18:05.599Z,21.80
2022-08-30T07:20:40.294Z,22.00
2022-08-30T07:23:07.873Z,22.20
2022-08-30T07:25:36.657Z,22.50
2022-08-30T07:32:58.850Z,22.70
2022-08-30T07:35:25.664Z,23.80
2022-08-30T07:37:52.414Z,24.40
2022-08-30T07:40:19.272Z,25.00
2022-08-30T07:42:46.031Z,26.20
2022-08-30T07:45:13.121Z,26.90
2022-08-30T07:47:39.920Z,27.20
2022-08-30T07:50:07.277Z,27.00
2022-08-30T07:52:35.512Z,26.80
2022-08-30T07:55:02.353Z,26.50
2022-08-30T07:57:33.524Z,26.10
2022-08-30T08:00:00.756Z,25.90
2022-08-30T08:02:27.570Z,26.80
2022-08-30T08:04:54.404Z,28.50
2022-08-30T08:07:21.156Z,29.80
2022-08-30T08:19:36.994Z,33.80
2022-08-30T08:27:14.644Z,36.50
2022-08-30T08:29:42.171Z,36.70
2022-08-30T08:32:08.896Z,36.90
2022-08-30T08:37:03.654Z,37.50
2022-08-30T08:39:30.522Z,37.60
2022-08-30T08:42:19.513Z,37.60
2022-08-30T08:45:10.790Z,37.90
2022-08-30T08:47:53.444Z,38.00
2022-08-30T08:50:23.493Z,38.20
2022-08-30T08:53:20.535Z,38.20
2022-08-30T08:55:58.186Z,38.30
2022-08-30T08:58:29.416Z,38.30
2022-08-30T09:00:58.193Z,38.60
2022-08-30T09:03:28.356Z,38.70
2022-08-30T09:05:56.019Z,38.80
2022-08-30T09:08:23.764Z,38.90
2022-08-30T09:11:03.272Z,39.00
2022-08-30T09:13:30.043Z,39.20
2022-08-30T09:15:59.456Z,39.40
2022-08-30T09:18:50.109Z,39.50
2022-08-30T09:21:27.603Z,39.80
2022-08-30T09:24:01.506Z,40.00
2022-08-30T09:26:38.000Z,40.10
2022-08-30T09:29:05.867Z,40.10
2022-08-30T09:32:05.650Z,40.20
2022-08-30T09:34:44.184Z,40.30
2022-08-30T09:37:26.053Z,40.40
2022-08-30T09:39:53.149Z,40.50
2022-08-30T09:44:53.715Z,40.70
2022-08-30T09:47:31.581Z,40.60
2022-08-30T09:50:33.758Z,40.70
2022-08-30T09:53:15.558Z,40.70
2022-08-30T09:56:18.694Z,40.50
2022-08-30T09:59:00.299Z,40.30
2022-08-30T10:01:32.093Z,40.40
2022-08-30T10:04:05.601Z,40.30
2022-08-30T10:06:49.978Z,40.30
2022-08-30T10:09:43.526Z,40.10
2022-08-30T10:12:28.123Z,40.00
2022-08-30T10:14:57.864Z,39.80
2022-08-30T10:17:39.159Z,39.80
2022-08-30T10:20:32.074Z,39.80
2022-08-30T10:23:20.301Z,39.70
2022-08-30T10:25:50.528Z,39.20
2022-08-30T10:28:29.335Z,38.70
2022-08-30T10:31:25.988Z,37.00
2022-08-30T10:36:33.100Z,36.90
2022-08-30T10:41:35.686Z,35.00
2022-08-30T10:44:06.632Z,33.60
2022-08-30T10:49:08.965Z,32.80
2022-08-30T10:52:01.571Z,32.00
2022-08-30T10:54:37.447Z,31.60
2022-08-30T10:57:04.499Z,31.30
2022-08-30T10:59:32.234Z,31.10
2022-08-30T11:08:28.629Z,30.80
2022-08-30T11:11:22.611Z,30.60
2022-08-30T11:13:51.671Z,30.40
2022-08-30T11:16:33.077Z,30.40
2022-08-30T11:18:59.931Z,30.20
2022-08-30T11:21:41.622Z,30.10
2022-08-30T11:24:21.951Z,30.00
2022-08-30T11:26:48.668Z,30.00
2022-08-30T11:29:33.582Z,29.90
2022-08-30T11:32:12.731Z,29.90
2022-08-30T11:34:45.688Z,29.90
2022-08-30T11:37:30.975Z,29.90
2022-08-30T11:40:31.525Z,29.80
2022-08-30T11:42:58.372Z,29.60
2022-08-30T11:45:26.808Z,29.50
2022-08-30T11:47:56.619Z,29.50
2022-08-30T11:50:59.797Z,29.40
2022-08-30T11:53:42.780Z,29.30
2022-08-30T11:56:50.668Z,29.20
2022-08-30T11:59:39.870Z,29.00
2022-08-30T12:02:07.935Z,29.10
2022-08-30T12:04:47.121Z,29.00
2022-08-30T12:07:52.268Z,28.80
2022-08-30T12:10:36.449Z,28.80
2022-08-30T12:13:03.678Z,28.70
2022-08-30T12:15:57.977Z,28.70
2022-08-30T12:18:32.803Z,28.60
2022-08-30T12:21:13.290Z,28.60
2022-08-30T12:23:46.661Z,28.60
2022-08-30T12:26:20.205Z,28.60
2022-08-30T12:28:49.182Z,28.50
2022-08-30T12:31:23.582Z,28.30
2022-08-30T12:34:00.717Z,28.10
2022-08-30T12:36:54.021Z,28.10
2022-08-30T12:39:25.011Z,28.10
2022-08-30T12:41:52.271Z,28.00
2022-08-30T12:44:23.010Z,28.00
2022-08-30T12:46:58.871Z,28.20
2022-08-30T12:49:30.077Z,28.10
2022-08-30T12:52:15.835Z,28.20
2022-08-30T12:54:43.840Z,28.30
2022-08-30T12:57:25.297Z,28.20
2022-08-30T13:10:59.056Z,28.10
2022-08-30T13:13:44.496Z,27.80
2022-08-30T13:16:20.795Z,27.80
2022-08-30T13:18:50.193Z,27.80
2022-08-30T13:21:30.514Z,27.80
2022-08-30T13:24:02.782Z,27.90
2022-08-30T13:26:33.809Z,28.00
2022-08-30T13:29:04.078Z,28.00
2022-08-30T13:31:31.992Z,28.10
2022-08-30T13:33:59.982Z,28.00
2022-08-30T13:36:32.984Z,28.10
2022-08-30T13:39:01.958Z,28.00
2022-08-30T13:41:30.087Z,27.90
2022-08-30T13:44:16.290Z,27.90
2022-08-30T13:46:52.512Z,27.80
2022-08-30T13:49:50.697Z,27.80
2022-08-30T13:52:22.894Z,27.70
2022-08-30T13:54:54.878Z,27.70
2022-08-30T14:00:19.080Z,27.50
2022-08-30T14:02:54.646Z,27.40
2022-08-30T14:06:00.471Z,27.40
2022-08-30T14:08:49.936Z,27.30
2022-08-30T14:11:19.837Z,27.30
2022-08-30T14:16:38.394Z,27.10
2022-08-30T14:19:07.398Z,27.10
2022-08-30T14:21:35.420Z,27.10
2022-08-30T14:24:04.730Z,27.10
2022-08-30T14:26:45.239Z,27.00
2022-08-30T14:29:15.926Z,27.00
2022-08-30T14:31:43.395Z,26.90
2022-08-30T14:34:12.041Z,26.90
2022-08-30T14:36:42.011Z,26.80
2022-08-30T14:39:12.127Z,26.80
2022-08-30T14:41:47.782Z,26.70
2022-08-30T14:44:15.824Z,26.70
2022-08-30T14:46:43.480Z,26.60
2022-08-30T14:49:12.149Z,26.60
2022-08-30T14:51:40.062Z,26.50
2022-08-30T14:54:07.656Z,26.50
2022-08-30T14:56:34.867Z,26.50
2022-08-30T14:59:02.942Z,26.50
2022-08-30T15:01:30.809Z,26.40
2022-08-30T15:06:26.576Z,26.30
2022-08-30T15:08:54.661Z,26.20
2022-08-30T15:11:23.318Z,26.10
2022-08-30T15:13:52.874Z,26.00
2022-08-30T15:16:22.025Z,26.00
2022-08-30T15:18:49.125Z,25.90
2022-08-30T15:21:23.253Z,25.90
2022-08-30T15:23:50.093Z,25.80
2022-08-30T15:26:19.600Z,25.80
2022-08-30T15:28:46.653Z,25.80
2022-08-30T15:31:13.508Z,25.70
2022-08-30T15:33:40.401Z,25.60
2022-08-30T15:36:12.406Z,25.60
2022-08-30T15:38:39.718Z,25.50
2022-08-30T15:41:09.581Z,25.50
2022-08-30T15:43:37.039Z,25.40
2022-08-30T15:46:23.727Z,25.40
2022-08-30T15:49:00.623Z,25.30
2022-08-30T15:51:28.259Z,25.30
2022-08-30T15:53:57.936Z,25.30
2022-08-30T15:56:25.077Z,25.20
2022-08-30T15:58:53.059Z,25.20
2022-08-30T16:01:30.151Z,25.20
2022-08-30T16:03:58.409Z,25.10
2022-08-30T16:06:28.722Z,25.10
2022-08-30T16:08:55.771Z,25.00
2022-08-30T16:11:24.736Z,24.90
2022-08-30T16:13:56.401Z,24.90
2022-08-30T16:16:24.355Z,24.90
2022-08-30T16:18:54.119Z,24.80
2022-08-30T16:21:24.509Z,24.80
2022-08-30T16:23:53.821Z,24.80
2022-08-30T16:26:21.207Z,24.80
2022-08-30T16:28:49.705Z,24.70
2022-08-30T16:31:18.024Z,24.60
2022-08-30T16:33:45.932Z,24.60
2022-08-30T16:36:13.936Z,24.60
2022-08-30T16:38:41.117Z,24.50
2022-08-30T16:41:11.785Z,24.50
2022-08-30T16:43:39.423Z,24.40
2022-08-30T16:46:09.979Z,24.40
2022-08-30T16:48:38.491Z,24.40
2022-08-30T16:51:10.388Z,24.30
2022-08-30T16:53:37.868Z,24.30
2022-08-30T16:56:14.290Z,24.20
2022-08-30T16:58:41.792Z,24.20
2022-08-30T17:01:09.077Z,24.10
2022-08-30T17:03:37.563Z,24.00
2022-08-30T17:06:06.010Z,24.00
2022-08-30T17:08:33.671Z,23.90
2022-08-30T17:11:00.541Z,23.80
2022-08-30T17:13:27.333Z,23.70
2022-08-30T17:15:54.407Z,23.60
2022-08-30T17:18:21.215Z,23.50
2022-08-30T17:20:48.306Z,23.40
2022-08-30T17:23:15.960Z,23.40
2022-08-30T17:25:43.707Z,23.30
2022-08-30T17:28:11.344Z,23.10
2022-08-30T17:30:38.399Z,23.10
2022-08-30T17:33:08.248Z,23.00
2022-08-30T17:35:35.240Z,22.90
2022-08-30T17:38:02.135Z,22.80
2022-08-30T17:40:28.962Z,22.70
2022-08-30T17:42:55.746Z,22.60
2022-08-30T17:45:22.836Z,22.60
2022-08-30T17:47:51.172Z,22.50
2022-08-30T17:50:19.473Z,22.50
2022-08-30T17:52:46.467Z,22.40
2022-08-30T17:55:13.674Z,22.30
2022-08-30T17:57:41.979Z,22.30
2022-08-30T18:00:12.071Z,22.30
2022-08-30T18:02:42.680Z,22.20
2022-08-30T18:05:10.484Z,22.10
2022-08-30T18:07:37.350Z,22.00
2022-08-30T18:10:05.413Z,22.00
2022-08-30T18:12:33.693Z,21.90
2022-08-30T18:15:01.452Z,21.80
2022-08-30T18:17:38.796Z,21.80
2022-08-30T18:20:07.392Z,21.70
2022-08-30T18:22:34.396Z,21.70
2022-08-30T18:25:02.619Z,21.60
2022-08-30T18:27:29.686Z,21.60
2022-08-30T18:29:56.388Z,21.50
2022-08-30T18:32:23.515Z,21.50
2022-08-30T18:34:59.742Z,21.40
2022-08-30T18:37:26.500Z,21.40
2022-08-30T18:39:53.603Z,21.30
2022-08-30T18:42:20.361Z,21.30
2022-08-30T18:44:47.804Z,21.20
2022-08-30T18:47:14.544Z,21.20
2022-08-30T18:49:41.466Z,21.10
2022-08-30T18:52:10.386Z,21.10
2022-08-30T18:54:47.320Z,21.00
2022-08-30T18:57:18.612Z,21.00
2022-08-30T18:59:45.683Z,20.90
2022-08-30T19:02:14.946Z,20.90
2022-08-30T19:04:45.132Z,20.90
2022-08-30T19:07:14.783Z,20.90
2022-08-30T19:09:41.829Z,20.80
2022-08-30T19:14:56.929Z,20.70
2022-08-30T19:17:26.414Z,20.60
2022-08-30T19:19:54.562Z,20.60
2022-08-30T19:25:10.666Z,20.60
2022-08-30T19:27:39.981Z,20.60
2022-08-30T19:30:10.726Z,20.60
2022-08-30T19:32:38.171Z,20.70
2022-08-30T19:35:05.994Z,20.60
2022-08-30T19:37:34.423Z,20.60
2022-08-30T19:40:02.268Z,20.60
2022-08-30T19:42:29.027Z,20.60
2022-08-30T19:44:55.978Z,20.50
2022-08-30T19:47:22.746Z,20.50
2022-08-30T19:49:49.541Z,20.40
2022-08-30T19:52:18.681Z,20.40
2022-08-30T19:54:45.631Z,20.40
2022-08-30T19:57:12.882Z,20.40
2022-08-30T19:59:41.018Z,20.40
2022-08-30T20:02:08.288Z,20.30
2022-08-30T20:04:35.295Z,20.30
2022-08-30T20:07:02.541Z,20.20
2022-08-30T20:09:29.316Z,20.20
2022-08-30T20:11:57.340Z,20.20
2022-08-30T20:14:25.866Z,20.10
2022-08-30T20:16:53.336Z,20.10
2022-08-30T20:19:21.793Z,20.10
2022-08-30T20:21:54.524Z,20.00
2022-08-30T20:24:28.096Z,20.00
2022-08-30T20:24:32.122Z,20.80
2022-08-30T20:24:33.242Z,20.60
2022-08-30T20:26:57.495Z,20.00
2022-08-30T20:29:24.284Z,20.00
2022-08-30T20:31:51.008Z,19.90
2022-08-30T20:34:17.823Z,19.90
2022-08-30T20:36:44.524Z,19.90
2022-08-30T20:39:16.503Z,19.90
2022-08-30T20:41:45.260Z,19.80
2022-08-30T20:44:13.659Z,19.80
2022-08-30T20:46:46.859Z,19.80
2022-08-30T20:49:13.910Z,19.70
2022-08-30T20:51:40.911Z,19.80
2022-08-30T20:54:07.817Z,19.70
2022-08-30T20:56:35.613Z,19.80
2022-08-30T20:59:03.583Z,19.70
2022-08-30T21:01:32.608Z,19.60
2022-08-30T21:03:59.728Z,19.60
2022-08-30T21:06:26.497Z,19.60
2022-08-30T21:08:53.484Z,19.50
2022-08-30T21:11:21.030Z,19.50
2022-08-30T21:13:48.460Z,19.50
2022-08-30T21:16:17.674Z,19.50
2022-08-30T21:18:49.033Z,19.50
2022-08-30T21:21:22.267Z,19.40
2022-08-30T21:23:50.257Z,19.40
2022-08-30T21:26:18.387Z,19.30
2022-08-30T21:28:49.825Z,19.20
2022-08-30T21:31:19.457Z,19.30
2022-08-30T21:33:48.553Z,19.30
2022-08-30T21:36:34.817Z,19.20
2022-08-30T21:39:02.460Z,19.20
2022-08-30T21:41:31.444Z,19.20
2022-08-30T21:44:00.337Z,19.20
2022-08-30T21:46:29.401Z,19.10
2022-08-30T21:48:58.216Z,19.10
2022-08-30T21:51:25.175Z,19.10
2022-08-30T21:53:51.901Z,19.00
2022-08-30T21:56:22.010Z,19.10
2022-08-30T21:58:49.771Z,19.00
2022-08-30T22:01:23.903Z,18.90
2022-08-30T22:03:52.927Z,19.00
2022-08-30T22:06:20.039Z,18.90
2022-08-30T22:08:47.698Z,18.90
2022-08-30T22:11:24.040Z,18.90
2022-08-30T22:13:52.740Z,18.90
2022-08-30T22:16:19.962Z,18.80
2022-08-30T22:18:47.616Z,18.80
2022-08-30T22:21:22.732Z,18.80
2022-08-30T22:23:49.550Z,18.80
2022-08-30T22:26:18.038Z,18.80
2022-08-30T22:28:44.967Z,18.70
2022-08-30T22:31:13.451Z,18.70
2022-08-30T23:08:15.927Z,18.30
2022-08-30T23:10:44.294Z,18.30
2022-08-30T23:13:11.558Z,18.30
2022-08-30T23:15:38.362Z,18.30
2022-08-30T23:18:05.226Z,18.30
2022-08-30T23:20:31.962Z,18.20
2022-08-30T23:22:58.701Z,18.10
2022-08-30T23:25:51.915Z,18.20
2022-08-30T23:28:39.208Z,18.10
2022-08-30T23:31:35.892Z,18.10
2022-08-30T23:34:21.157Z,18.10
2022-08-30T23:37:06.695Z,18.10
2022-08-30T23:39:52.144Z,18.10
2022-08-30T23:42:37.758Z,18.10
2022-08-30T23:45:23.672Z,18.10
2022-08-30T23:48:08.889Z,18.00
2022-08-30T23:50:54.444Z,18.10
2022-08-30T23:53:39.867Z,18.00
2022-08-30T23:56:30.754Z,18.00
2022-08-30T23:59:16.426Z,18.00
